createdAt,value
2023-02-28T00:01:25.551Z,-1.85
2023-02-28T00:05:02.077Z,-1.86
2023-02-28T00:08:26.040Z,-1.85
2023-02-28T00:11:50.016Z,-1.87
2023-02-28T00:15:14.376Z,-1.91
2023-02-28T00:18:38.860Z,-1.96
2023-02-28T00:22:02.711Z,-2.01
2023-02-28T00:25:28.134Z,-2.07
2023-02-28T00:28:54.664Z,-2.13
2023-02-28T00:32:20.878Z,-2.17
2023-02-28T00:35:47.404Z,-2.21
2023-02-28T00:39:11.462Z,-2.24
2023-02-28T00:42:36.569Z,-2.29
2023-02-28T00:46:02.243Z,-2.33
2023-02-28T00:49:28.831Z,-2.36
2023-02-28T00:52:52.814Z,-2.41
2023-02-28T00:56:17.825Z,-2.48
2023-02-28T00:59:41.804Z,-2.54
2023-02-28T01:03:05.783Z,-2.61
2023-02-28T01:06:29.932Z,-2.69
2023-02-28T01:09:53.792Z,-2.77
2023-02-28T01:13:18.450Z,-2.83
2023-02-28T01:16:42.442Z,-2.87
2023-02-28T01:20:07.012Z,-2.89
2023-02-28T01:23:30.842Z,-2.93
2023-02-28T01:26:54.654Z,-2.97
2023-02-28T01:30:19.049Z,-3.05
2023-02-28T01:33:44.593Z,-3.10
2023-02-28T01:37:08.512Z,-3.16
2023-02-28T01:40:32.530Z,-3.21
2023-02-28T01:44:05.304Z,-3.26
2023-02-28T01:47:41.014Z,-3.30
2023-02-28T01:51:13.579Z,-3.35
2023-02-28T01:54:37.879Z,-3.40
2023-02-28T01:58:06.356Z,-3.46
2023-02-28T02:01:32.802Z,-3.53
2023-02-28T02:05:07.128Z,-3.57
2023-02-28T02:08:31.623Z,-3.63
2023-02-28T02:11:57.642Z,-3.68
2023-02-28T02:15:50.001Z,-3.73
2023-02-28T02:19:28.573Z,-3.78
2023-02-28T02:23:17.945Z,-3.85
2023-02-28T02:27:00.151Z,-3.88
2023-02-28T02:31:08.840Z,-3.90
2023-02-28T02:34:54.111Z,-3.94
2023-02-28T02:38:36.414Z,-3.97
2023-02-28T02:42:05.199Z,-4.02
2023-02-28T02:45:37.935Z,-4.07
2023-02-28T02:49:06.459Z,-4.11
2023-02-28T02:52:37.773Z,-4.12
2023-02-28T02:56:04.099Z,-4.15
2023-02-28T02:59:30.201Z,-4.15
2023-02-28T03:02:57.005Z,-4.16
2023-02-28T03:06:21.355Z,-4.17
2023-02-28T03:09:54.604Z,-4.18
2023-02-28T03:13:36.929Z,-4.18
2023-02-28T03:17:20.653Z,-4.18
2023-02-28T03:21:08.760Z,-4.18
2023-02-28T03:24:47.723Z,-4.19
2023-02-28T03:28:15.837Z,-4.16
2023-02-28T03:31:44.027Z,-4.13
2023-02-28T03:35:23.248Z,-4.14
2023-02-28T03:38:59.742Z,-4.15
2023-02-28T03:42:27.973Z,-4.12
2023-02-28T03:45:53.614Z,-4.10
2023-02-28T03:49:29.402Z,-4.09
2023-02-28T03:53:13.610Z,-4.14
2023-02-28T03:56:45.654Z,-4.19
2023-02-28T04:00:45.783Z,-4.22
2023-02-28T04:04:14.375Z,-4.26
2023-02-28T04:07:39.421Z,-4.34
2023-02-28T04:11:08.893Z,-4.39
2023-02-28T04:14:32.837Z,-4.45
2023-02-28T04:17:56.814Z,-4.49
2023-02-28T04:21:23.196Z,-4.53
2023-02-28T04:24:47.128Z,-4.55
2023-02-28T04:28:14.131Z,-4.54
2023-02-28T04:31:38.176Z,-4.52
2023-02-28T04:35:04.366Z,-4.48
2023-02-28T04:38:28.225Z,-4.43
2023-02-28T04:41:52.647Z,-4.40
2023-02-28T04:45:16.610Z,-4.35
2023-02-28T04:48:41.701Z,-4.32
2023-02-28T04:52:06.429Z,-4.29
2023-02-28T04:55:30.230Z,-4.29
2023-02-28T04:58:54.242Z,-4.29
2023-02-28T05:02:18.221Z,-4.27
2023-02-28T05:05:42.088Z,-4.24
2023-02-28T05:09:05.927Z,-4.21
2023-02-28T05:12:29.862Z,-4.18
2023-02-28T05:15:53.771Z,-4.13
2023-02-28T05:19:17.765Z,-4.11
2023-02-28T05:22:43.156Z,-4.09
2023-02-28T05:26:07.101Z,-4.08
2023-02-28T05:29:31.012Z,-4.07
2023-02-28T05:32:54.923Z,-4.05
2023-02-28T05:36:18.777Z,-4.01
2023-02-28T05:39:42.695Z,-3.96
2023-02-28T05:43:06.636Z,-3.90
2023-02-28T05:46:30.536Z,-3.82
2023-02-28T05:49:54.399Z,-3.75
2023-02-28T05:53:18.444Z,-3.66
2023-02-28T05:56:45.147Z,-3.60
2023-02-28T06:00:12.551Z,-3.54
2023-02-28T06:03:36.797Z,-3.46
2023-02-28T06:07:00.865Z,-3.34
2023-02-28T06:10:25.026Z,-3.22
2023-02-28T06:13:49.845Z,-3.08
2023-02-28T06:17:13.627Z,-2.96
2023-02-28T06:20:37.602Z,-2.82
2023-02-28T06:24:01.798Z,-2.71
2023-02-28T06:27:25.947Z,-2.62
2023-02-28T06:30:50.114Z,-2.54
2023-02-28T06:34:15.956Z,-2.46
2023-02-28T06:37:41.699Z,-2.37
2023-02-28T06:41:07.144Z,-2.27
2023-02-28T06:44:36.209Z,-2.13
2023-02-28T06:48:01.309Z,-2.01
2023-02-28T06:51:25.522Z,-1.91
2023-02-28T06:55:00.880Z,-1.83
2023-02-28T06:58:24.835Z,-1.78
2023-02-28T07:01:49.315Z,-1.74
2023-02-28T07:05:13.331Z,-1.68
2023-02-28T07:08:38.036Z,-1.62
2023-02-28T07:12:02.059Z,-1.53
2023-02-28T07:15:26.295Z,-1.41
2023-02-28T07:18:50.522Z,-1.32
2023-02-28T07:22:15.956Z,-1.22
2023-02-28T07:25:40.504Z,-1.14
2023-02-28T07:29:04.559Z,-1.08
2023-02-28T07:32:28.426Z,-0.97
2023-02-28T07:35:52.532Z,-0.86
2023-02-28T07:39:16.418Z,-0.74
2023-02-28T07:42:41.454Z,-0.59
2023-02-28T07:46:08.798Z,-0.44
2023-02-28T07:49:33.198Z,-0.36
2023-02-28T07:52:57.273Z,-0.28
2023-02-28T07:56:21.152Z,-0.20
2023-02-28T07:59:46.177Z,-0.11
2023-02-28T08:03:15.102Z,0.02
2023-02-28T08:06:39.139Z,0.12
2023-02-28T08:10:03.027Z,0.21
2023-02-28T08:13:28.342Z,0.26
2023-02-28T08:16:52.305Z,0.33
2023-02-28T08:20:16.276Z,0.41
2023-02-28T08:23:40.257Z,0.44
2023-02-28T08:27:04.116Z,0.51
2023-02-28T08:30:28.032Z,0.55
2023-02-28T08:33:54.241Z,0.65
2023-02-28T08:37:18.248Z,0.81
2023-02-28T08:40:42.455Z,0.96
2023-02-28T08:44:07.205Z,0.98
2023-02-28T08:47:31.323Z,0.90
2023-02-28T08:51:27.412Z,0.73
2023-02-28T08:54:51.740Z,0.60
2023-02-28T08:58:16.709Z,0.67
2023-02-28T09:01:42.389Z,0.93
2023-02-28T09:05:07.169Z,1.14
2023-02-28T09:08:32.803Z,1.30
2023-02-28T09:11:57.799Z,1.42
2023-02-28T09:15:21.654Z,1.67
2023-02-28T09:18:46.471Z,1.94
2023-02-28T09:22:12.769Z,2.16
2023-02-28T09:25:37.204Z,2.42
2023-02-28T09:29:01.007Z,2.59
2023-02-28T09:32:25.004Z,2.58
2023-02-28T09:35:50.540Z,2.61
2023-02-28T09:39:16.515Z,2.57
2023-02-28T09:42:41.023Z,2.51
2023-02-28T09:46:16.428Z,2.31
2023-02-28T09:49:48.074Z,2.28
2023-02-28T09:53:22.130Z,2.37
2023-02-28T09:56:52.921Z,2.18
2023-02-28T10:00:25.677Z,1.91
2023-02-28T10:04:01.214Z,1.73
2023-02-28T10:07:52.848Z,1.57
2023-02-28T10:11:21.692Z,1.73
2023-02-28T10:14:49.849Z,1.79
2023-02-28T10:18:21.949Z,1.88
2023-02-28T10:21:57.097Z,1.62
2023-02-28T10:25:27.079Z,1.51
2023-02-28T10:28:55.364Z,1.47
2023-02-28T10:32:25.872Z,1.42
2023-02-28T10:35:50.297Z,1.42
2023-02-28T10:39:41.537Z,1.21
2023-02-28T10:43:08.344Z,1.18
2023-02-28T10:46:35.933Z,1.41
2023-02-28T10:50:00.196Z,1.67
2023-02-28T10:53:24.617Z,1.82
2023-02-28T10:57:09.613Z,1.53
2023-02-28T11:00:36.964Z,1.25
2023-02-28T11:04:04.450Z,1.29
2023-02-28T11:07:37.256Z,1.46
2023-02-28T11:11:08.779Z,1.68
2023-02-28T11:14:51.336Z,1.93
2023-02-28T11:18:15.230Z,2.42
2023-02-28T11:21:41.137Z,2.67
2023-02-28T11:25:09.826Z,2.64
2023-02-28T11:28:39.190Z,2.84
2023-02-28T11:32:15.496Z,2.77
2023-02-28T11:35:41.701Z,2.55
2023-02-28T11:39:13.784Z,2.46
2023-02-28T11:42:45.787Z,2.73
2023-02-28T11:46:31.535Z,3.00
2023-02-28T11:50:20.476Z,2.99
2023-02-28T11:54:03.386Z,2.87
2023-02-28T11:57:33.148Z,2.97
2023-02-28T12:01:00.209Z,3.05
2023-02-28T12:04:56.952Z,3.08
2023-02-28T12:08:39.496Z,3.03
2023-02-28T12:12:03.830Z,3.12
2023-02-28T12:15:39.780Z,3.34
2023-02-28T12:19:09.190Z,3.39
2023-02-28T12:22:40.117Z,3.34
2023-02-28T12:26:22.459Z,3.19
2023-02-28T12:29:56.302Z,3.01
2023-02-28T12:33:28.466Z,3.08
2023-02-28T12:37:01.849Z,3.28
2023-02-28T12:40:31.444Z,3.45
2023-02-28T12:44:02.707Z,3.42
2023-02-28T12:47:26.623Z,3.26
2023-02-28T12:50:50.941Z,3.29
2023-02-28T12:54:30.877Z,3.59
2023-02-28T12:58:12.858Z,3.89
2023-02-28T13:01:48.979Z,4.26
2023-02-28T13:05:31.463Z,4.13
2023-02-28T13:09:03.141Z,4.02
2023-02-28T13:12:27.991Z,3.94
2023-02-28T13:16:12.034Z,3.96
2023-02-28T13:19:40.607Z,4.07
2023-02-28T13:23:06.452Z,3.89
2023-02-28T13:26:33.520Z,3.75
2023-02-28T13:29:57.378Z,3.86
2023-02-28T13:33:26.064Z,4.03
2023-02-28T13:36:50.160Z,4.16
2023-02-28T13:40:38.237Z,4.29
2023-02-28T13:44:18.650Z,4.42
2023-02-28T13:47:46.158Z,4.22
2023-02-28T13:51:41.767Z,4.10
2023-02-28T13:55:29.288Z,4.26
2023-02-28T13:59:16.094Z,4.31
2023-02-28T14:02:54.882Z,4.36
2023-02-28T14:06:28.523Z,4.48
2023-02-28T14:10:06.617Z,4.50
2023-02-28T14:13:45.785Z,4.42
2023-02-28T14:17:16.326Z,4.33
2023-02-28T14:20:43.041Z,4.45
2023-02-28T14:24:31.843Z,4.43
2023-02-28T14:28:14.973Z,4.25
2023-02-28T14:32:09.090Z,4.57
2023-02-28T14:36:16.876Z,4.89
2023-02-28T14:40:15.802Z,4.66
2023-02-28T14:44:16.773Z,4.05
2023-02-28T14:48:16.841Z,3.83
2023-02-28T14:52:37.788Z,3.59
2023-02-28T14:56:44.860Z,3.44
2023-02-28T15:00:47.747Z,3.44
2023-02-28T15:04:45.806Z,3.23
2023-02-28T15:08:43.733Z,2.82
2023-02-28T15:12:41.740Z,2.66
2023-02-28T15:16:52.791Z,2.63
2023-02-28T15:20:54.908Z,2.58
2023-02-28T15:25:00.778Z,2.52
2023-02-28T15:28:59.804Z,2.40
2023-02-28T15:32:57.766Z,2.31
2023-02-28T15:36:56.783Z,2.21
2023-02-28T15:41:03.697Z,2.08
2023-02-28T15:45:01.742Z,1.93
2023-02-28T15:49:06.793Z,1.78
2023-02-28T15:53:05.771Z,1.61
2023-02-28T15:57:07.661Z,1.47
2023-02-28T16:01:20.389Z,1.34
2023-02-28T16:05:42.741Z,1.20
2023-02-28T16:09:40.726Z,1.04
2023-02-28T16:13:38.699Z,0.90
2023-02-28T16:17:41.796Z,0.72
2023-02-28T16:21:40.718Z,0.59
2023-02-28T16:25:44.671Z,0.49
2023-02-28T16:29:47.629Z,0.39
2023-02-28T16:33:48.710Z,0.29
2023-02-28T16:37:46.816Z,0.14
2023-02-28T16:41:44.683Z,0.01
2023-02-28T16:45:45.738Z,-0.09
2023-02-28T16:49:43.758Z,-0.16
2023-02-28T16:53:41.581Z,-0.26
2023-02-28T16:57:39.617Z,-0.35
2023-02-28T17:01:37.781Z,-0.46
2023-02-28T17:05:36.604Z,-0.58
2023-02-28T17:09:43.031Z,-0.67
2023-02-28T17:13:41.560Z,-0.77
2023-02-28T17:17:39.606Z,-0.86
2023-02-28T17:21:37.593Z,-0.97
2023-02-28T17:25:36.625Z,-1.06
2023-02-28T17:29:37.845Z,-1.18
2023-02-28T17:33:35.563Z,-1.27
2023-02-28T17:37:33.660Z,-1.33
2023-02-28T17:41:31.611Z,-1.42
2023-02-28T17:45:30.616Z,-1.48
2023-02-28T17:49:30.763Z,-1.56
2023-02-28T17:53:30.596Z,-1.61
2023-02-28T17:57:31.521Z,-1.69
2023-02-28T18:01:29.589Z,-1.77
2023-02-28T18:05:27.457Z,-1.83
2023-02-28T18:09:25.525Z,-1.88
2023-02-28T18:13:23.466Z,-1.94
2023-02-28T18:17:21.538Z,-1.97
2023-02-28T18:21:20.665Z,-2.00
2023-02-28T18:25:23.478Z,-2.03
2023-02-28T18:29:22.450Z,-2.08
2023-02-28T18:33:20.435Z,-2.09
2023-02-28T18:37:18.500Z,-2.09
2023-02-28T18:41:19.518Z,-2.09
2023-02-28T18:45:17.444Z,-2.14
2023-02-28T18:49:15.444Z,-2.20
2023-02-28T18:53:13.457Z,-2.26
2023-02-28T18:57:13.581Z,-2.32
2023-02-28T19:01:11.578Z,-2.37
2023-02-28T19:05:09.440Z,-2.39
2023-02-28T19:09:16.527Z,-2.40
2023-02-28T19:13:16.563Z,-2.45
2023-02-28T19:17:14.448Z,-2.51
2023-02-28T19:21:14.460Z,-2.57
2023-02-28T19:25:12.442Z,-2.62
2023-02-28T19:29:10.524Z,-2.67
2023-02-28T19:33:08.383Z,-2.69
2023-02-28T19:37:06.474Z,-2.73
2023-02-28T19:41:04.356Z,-2.76
2023-02-28T19:45:02.441Z,-2.77
2023-02-28T19:49:00.341Z,-2.81
2023-02-28T19:53:00.392Z,-2.83
2023-02-28T19:56:58.425Z,-2.82
2023-02-28T20:00:56.441Z,-2.84
2023-02-28T20:04:55.402Z,-2.89
2023-02-28T20:08:54.413Z,-2.95
2023-02-28T20:12:52.386Z,-3.00
2023-02-28T20:16:51.579Z,-3.06
2023-02-28T20:20:49.301Z,-3.14
2023-02-28T20:24:47.306Z,-3.16
2023-02-28T20:28:45.339Z,-3.16
2023-02-28T20:32:45.406Z,-3.15
2023-02-28T20:36:43.267Z,-3.13
2023-02-28T20:40:41.299Z,-3.15
2023-02-28T20:44:39.298Z,-3.18
2023-02-28T20:48:37.308Z,-3.21
2023-02-28T20:52:36.363Z,-3.23
2023-02-28T20:56:36.327Z,-3.28
2023-02-28T21:00:34.249Z,-3.34
2023-02-28T21:04:35.266Z,-3.38
2023-02-28T21:08:33.315Z,-3.44
2023-02-28T21:12:31.322Z,-3.48
2023-02-28T21:16:32.416Z,-3.52
2023-02-28T21:20:30.220Z,-3.56
2023-02-28T21:24:31.233Z,-3.61
2023-02-28T21:28:29.229Z,-3.65
2023-02-28T21:32:27.191Z,-3.68
2023-02-28T21:36:28.414Z,-3.72
2023-02-28T21:40:26.156Z,-3.72
2023-02-28T21:44:25.210Z,-3.74
2023-02-28T21:48:23.123Z,-3.78
2023-02-28T21:52:21.217Z,-3.84
2023-02-28T21:56:22.181Z,-3.87
2023-02-28T22:00:20.176Z,-3.91
2023-02-28T22:04:28.145Z,-3.91
2023-02-28T22:08:26.132Z,-3.92
2023-02-28T22:12:24.162Z,-3.95
2023-02-28T22:16:26.511Z,-3.97
2023-02-28T22:20:27.232Z,-3.98
2023-02-28T22:24:27.190Z,-3.98
2023-02-28T22:28:25.095Z,-3.97
2023-02-28T22:32:23.212Z,-3.98
2023-02-28T22:36:22.093Z,-4.01
2023-02-28T22:40:20.115Z,-4.05
2023-02-28T22:44:19.123Z,-4.07
2023-02-28T22:48:18.149Z,-4.08
2023-02-28T22:52:16.185Z,-4.10
2023-02-28T22:56:15.069Z,-4.16
2023-02-28T23:00:13.025Z,-4.18
2023-02-28T23:04:18.091Z,-4.19
2023-02-28T23:08:16.036Z,-4.17
2023-02-28T23:12:14.097Z,-4.13
2023-02-28T23:16:13.043Z,-4.07
2023-02-28T23:20:11.082Z,-4.02
2023-02-28T23:24:08.994Z,-3.96
2023-02-28T23:28:07.067Z,-3.92
2023-02-28T23:32:05.049Z,-3.91
2023-02-28T23:36:03.041Z,-3.89
2023-02-28T23:40:01.084Z,-3.91
2023-02-28T23:43:58.976Z,-3.93
2023-02-28T23:47:56.971Z,-3.94
2023-02-28T23:51:55.943Z,-3.94
2023-02-28T23:55:59.950Z,-3.93
2023-02-28T23:59:57.969Z,-3.92
